Pagina principale
METAR-TAF:

METAR-TAF

Aeroporti :

Wittering, Inghilterra

latitudine: 52-37N, longitudine: 000-28W, altezza: 84 m

Osservazione

Il bollettino è stato emesso 55 minuti fa, alle 16:50 UTC
Vento 13 kt da est
Temperature 22°C
Umidità 35%
Pressione 1022 hPa
Visibilità 10 km o più

METAR: EGXT 311650Z AUTO 09013KT 9999 SCT060/// 22/06 Q1022

Ora: 18:45 (17:45 UTC)


TAF: mancante

Osservazioni e previsioni meteorologiche di più di 4000 aeroporti (messaggi METAR e TAF).

Le stazioni disponibili sono rappresentate dai dischi gialli e rossi sulla carta.

Puntare il mouse per vedere il nome della stazione.

Clicca sopra per visualizzare le osservazioni e previsioni meteorologiche.

Per cambiare la mappa : fare clic sui pulsanti verdi con una croce nera per ingrandire, il pulsante verde con un trattino per diminuire, o sulla freccia verde per le mappe adiacenti.


METAR-TAF: